Time;durP1;ratioP1;P1;durP2;ratioP2;P2;SDS_P1;SDS_P2;PMS_P1;PMS_P2;Temp;Humidity;BMP_temperature;BMP_pressure;BME280_temperature;BME280_humidity;BME280_pressure;Samples;Min_cycle;Max_cycle;Signal;HPM_P1;HPM_P2
2023/03/10 00:01:08;;;;;;;;;;;;;;;1.46;89.69;99060.22;4123998;28;20479;-63
2023/03/10 00:03:10;;;;;;;;;;;;;;;1.46;89.96;99060.22;4121940;28;20034;-64
2023/03/10 00:05:15;;;;;;;;;;;;;;;1.44;90.00;99063.03;4123816;28;20025;-63
2023/03/10 00:07:17;;;;;;;;;;;;;;;1.45;90.23;99063.84;4123629;28;20021;-63
2023/03/10 00:09:19;;;;;;;;;;;;;;;1.44;90.26;99059.50;4123227;28;19968;-63
2023/03/10 00:11:21;;;;;;;;;;;;;;;1.45;90.25;99055.88;4120693;28;20089;-63
2023/03/10 00:13:23;;;;;;;;;;;;;;;1.44;90.31;99059.50;4123003;28;20427;-64
2023/03/10 00:15:25;;;;;;;;;;;;;;;1.44;90.54;99048.88;4123882;28;20016;-63
2023/03/10 00:17:28;;;;;;;;;;;;;;;1.42;90.45;99041.06;4122508;28;20013;-63
2023/03/10 00:19:30;;;;;;;;;;;;;;;1.43;90.34;99040.06;4121695;28;20076;-63
2023/03/10 00:21:33;;;;;;;;;;;;;;;1.44;90.39;99036.44;4122180;28;20030;-63
2023/03/10 00:23:35;;;;;;;;;;;;;;;1.46;90.55;99032.75;4121665;28;20045;-64
2023/03/10 00:25:38;;;;;;;;;;;;;;;1.46;90.69;99030.09;4122157;28;20017;-61
2023/03/10 00:27:40;;;;;;;;;;;;;;;1.47;90.43;99021.94;4121134;28;20469;-63
2023/03/10 00:29:42;;;;;;;;;;;;;;;1.47;90.39;99015.81;4120824;28;20021;-63
2023/03/10 00:31:44;;;;;;;;;;;;;;;1.48;90.13;99012.16;4103703;28;20437;-64
2023/03/10 00:33:46;;;;;;;;;;;;;;;1.49;90.06;99008.50;4105174;28;20016;-64
2023/03/10 00:35:48;;;;;;;;;;;;;;;1.47;89.88;99006.00;4120112;28;20519;-64
2023/03/10 00:37:53;;;;;;;;;;;;;;;1.48;89.89;98998.84;4120305;28;20025;-64
2023/03/10 00:39:55;;;;;;;;;;;;;;;1.49;89.79;98984.53;4121932;28;20405;-62
2023/03/10 00:41:58;;;;;;;;;;;;;;;1.50;89.70;98986.22;4121506;28;20071;-64
2023/03/10 00:44:00;;;;;;;;;;;;;;;1.51;89.56;98977.25;4121867;28;20033;-64
2023/03/10 00:46:03;;;;;;;;;;;;;;;1.52;89.55;98976.25;4119072;28;20032;-64
2023/03/10 00:48:05;;;;;;;;;;;;;;;1.49;89.34;98977.41;4120807;28;20016;-64
2023/03/10 00:50:08;;;;;;;;;;;;;;;1.47;89.31;98965.25;4121845;28;20028;-64
2023/03/10 00:52:10;;;;;;;;;;;;;;;1.50;89.20;98964.94;4121962;28;20447;-64
2023/03/10 00:54:13;;;;;;;;;;;;;;;1.50;89.40;98964.94;4122707;28;20214;-65
2023/03/10 00:56:17;;;;;;;;;;;;;;;1.51;89.27;98962.13;4103209;28;19961;-64
2023/03/10 00:58:19;;;;;;;;;;;;;;;1.51;89.21;98950.66;4122758;28;20020;-64
2023/03/10 01:00:23;;;;;;;;;;;;;;;1.49;89.55;98953.47;4104653;28;20369;-64
2023/03/10 01:02:25;;;;;;;;;;;;;;;1.48;89.52;98938.50;4118041;28;20018;-62
2023/03/10 01:04:27;;;;;;;;;;;;;;;1.47;89.69;98933.34;4121738;28;20041;-63
2023/03/10 01:06:29;;;;;;;;;;;;;;;1.45;89.73;98922.84;4120966;28;20068;-64
2023/03/10 01:08:31;;;;;;;;;;;;;;;1.45;89.91;98922.84;4120498;28;20013;-63
2023/03/10 01:10:35;;;;;;;;;;;;;;;1.47;90.05;98914.72;4122914;28;20371;-63
2023/03/10 01:12:37;;;;;;;;;;;;;;;1.47;90.04;98912.03;4119713;28;20029;-63
2023/03/10 01:14:40;;;;;;;;;;;;;;;1.46;90.33;98900.59;4119480;28;20021;-63
2023/03/10 01:16:43;;;;;;;;;;;;;;;1.49;90.40;98896.75;4121237;28;20020;-62
2023/03/10 01:18:45;;;;;;;;;;;;;;;1.47;90.38;98899.56;4118346;28;20024;-64
2023/03/10 01:20:47;;;;;;;;;;;;;;;1.47;90.65;98893.44;4121203;28;20406;-63
2023/03/10 01:22:49;;;;;;;;;;;;;;;1.47;90.71;98888.09;4122086;28;20037;-64
2023/03/10 01:24:51;;;;;;;;;;;;;;;1.48;90.81;98879.13;4121099;28;20032;-64
2023/03/10 01:26:55;;;;;;;;;;;;;;;1.48;91.17;98879.97;4121093;28;20454;-63
2023/03/10 01:28:57;;;;;;;;;;;;;;;1.47;91.18;98877.47;4123545;28;20025;-60
2023/03/10 01:30:59;;;;;;;;;;;;;;;1.48;91.19;98877.31;4119639;28;20024;-62
2023/03/10 01:33:01;;;;;;;;;;;;;;;1.50;91.11;98866.50;4121543;28;20465;-62
2023/03/10 01:35:03;;;;;;;;;;;;;;;1.51;90.87;98862.84;4122904;28;20021;-63
2023/03/10 01:37:05;;;;;;;;;;;;;;;1.52;90.97;98865.34;4120030;28;20025;-61
2023/03/10 01:39:07;;;;;;;;;;;;;;;1.52;90.92;98859.16;4122479;28;20017;-63
2023/03/10 01:41:09;;;;;;;;;;;;;;;1.51;90.73;98850.38;4120841;28;20029;-64
2023/03/10 01:43:16;;;;;;;;;;;;;;;1.52;90.87;98851.19;4119883;28;20078;-64
2023/03/10 01:45:36;;;;;;;;;;;;;;;1.51;90.78;98839.72;4120873;28;20394;-64
2023/03/10 01:47:39;;;;;;;;;;;;;;;1.51;90.78;98825.59;4121693;28;20025;-64
2023/03/10 01:49:41;;;;;;;;;;;;;;;1.50;90.73;98814.09;4104552;28;20033;-64
2023/03/10 01:51:44;;;;;;;;;;;;;;;1.54;90.74;98809.31;4120549;28;20057;-63
2023/03/10 01:53:46;;;;;;;;;;;;;;;1.55;90.57;98806.47;4119838;28;20455;-63
2023/03/10 01:55:50;;;;;;;;;;;;;;;1.55;90.55;98793.16;4122142;28;20354;-62
2023/03/10 01:57:52;;;;;;;;;;;;;;;1.53;90.65;98792.50;4122400;28;20471;-63
2023/03/10 01:59:55;;;;;;;;;;;;;;;1.52;90.55;98793.50;4122684;28;20026;-64
2023/03/10 02:01:58;;;;;;;;;;;;;;;1.53;90.86;98783.69;4122619;28;20013;-64
2023/03/10 02:04:02;;;;;;;;;;;;;;;1.53;90.81;98778.38;4124045;28;20024;-63
2023/03/10 02:06:05;;;;;;;;;;;;;;;1.54;90.99;98778.19;4125451;28;20463;-64
2023/03/10 02:08:07;;;;;;;;;;;;;;;1.55;91.03;98779.03;4126175;28;20021;-63
2023/03/10 02:10:10;;;;;;;;;;;;;;;1.54;91.13;98770.22;4125682;28;20021;-62
2023/03/10 02:12:12;;;;;;;;;;;;;;;1.55;91.36;98763.91;4108147;28;20013;-64
2023/03/10 02:14:14;;;;;;;;;;;;;;;1.55;91.05;98753.25;4124608;28;20102;-63
2023/03/10 02:16:18;;;;;;;;;;;;;;;1.58;90.91;98752.06;4123741;28;20024;-62
2023/03/10 02:18:21;;;;;;;;;;;;;;;1.55;91.06;98761.25;4124350;28;20020;-63
2023/03/10 02:20:26;;;;;;;;;;;;;;;1.55;91.32;98749.75;4123253;28;20235;-63
2023/03/10 02:22:28;;;;;;;;;;;;;;;1.55;91.39;98747.94;4119163;28;20021;-62
2023/03/10 02:24:31;;;;;;;;;;;;;;;1.57;91.35;98745.94;4124960;28;20025;-63
2023/03/10 02:26:35;;;;;;;;;;;;;;;1.58;91.45;98738.78;4123223;28;20028;-62
2023/03/10 02:28:39;;;;;;;;;;;;;;;1.57;91.42;98735.28;4123729;28;20025;-63
2023/03/10 02:30:41;;;;;;;;;;;;;;;1.57;91.45;98732.63;4119931;28;20044;-62
2023/03/10 02:32:44;;;;;;;;;;;;;;;1.57;91.60;98719.31;4122984;28;20021;-62
2023/03/10 02:34:46;;;;;;;;;;;;;;;1.58;91.66;98710.34;4123284;28;20394;-63
2023/03/10 02:36:49;;;;;;;;;;;;;;;1.59;91.72;98701.34;4123549;28;20020;-63
2023/03/10 02:38:51;;;;;;;;;;;;;;;1.60;91.51;98697.69;4125013;28;20022;-63
2023/03/10 02:40:54;;;;;;;;;;;;;;;1.62;91.26;98694.88;4121313;28;20009;-63
2023/03/10 02:43:01;;;;;;;;;;;;;;;1.61;91.43;98695.84;4122779;28;20024;-64
2023/03/10 02:45:04;;;;;;;;;;;;;;;1.60;91.49;98692.38;4108127;28;20037;-64
2023/03/10 02:47:07;;;;;;;;;;;;;;;1.59;91.48;98688.03;4122814;28;20020;-63
2023/03/10 02:49:12;;;;;;;;;;;;;;;1.61;91.74;98690.53;4124875;28;20017;-63
2023/03/10 02:51:18;;;;;;;;;;;;;;;1.61;91.70;98687.88;4124083;28;20020;-62
2023/03/10 02:53:21;;;;;;;;;;;;;;;1.59;91.72;98672.09;4118296;28;20008;-63
2023/03/10 02:55:24;;;;;;;;;;;;;;;1.61;91.60;98669.25;4123342;28;20028;-63
2023/03/10 02:57:28;;;;;;;;;;;;;;;1.62;91.48;98682.38;4120527;28;20013;-64
2023/03/10 02:59:30;;;;;;;;;;;;;;;1.62;91.68;98670.91;4124463;28;20025;-63
2023/03/10 03:01:33;;;;;;;;;;;;;;;1.60;91.58;98665.78;4117627;28;20371;-63
2023/03/10 03:03:35;;;;;;;;;;;;;;;1.61;91.76;98669.25;4122999;28;20020;-63
2023/03/10 03:05:38;;;;;;;;;;;;;;;1.62;92.15;98662.94;4107169;28;20021;-62
2023/03/10 03:07:41;;;;;;;;;;;;;;;1.65;91.70;98646.63;4123488;28;20340;-65
2023/03/10 03:09:43;;;;;;;;;;;;;;;1.66;91.42;98645.63;4123728;28;20577;-64
2023/03/10 03:11:45;;;;;;;;;;;;;;;1.67;91.33;98646.47;4123029;28;20017;-64
2023/03/10 03:13:48;;;;;;;;;;;;;;;1.68;91.17;98640.97;4122908;28;20474;-64
2023/03/10 03:15:50;;;;;;;;;;;;;;;1.67;91.07;98631.31;4123898;28;20016;-64
2023/03/10 03:17:54;;;;;;;;;;;;;;;1.68;91.25;98638.31;4122216;28;20040;-64
2023/03/10 03:19:57;;;;;;;;;;;;;;;1.69;91.02;98628.47;4122682;28;20025;-63
2023/03/10 03:21:59;;;;;;;;;;;;;;;1.68;91.07;98624.16;4105261;28;20021;-64
2023/03/10 03:24:03;;;;;;;;;;;;;;;1.70;90.75;98624.84;4123133;28;20018;-64
2023/03/10 03:26:05;;;;;;;;;;;;;;;1.72;90.48;98620.16;4123466;28;20919;-63
2023/03/10 03:28:08;;;;;;;;;;;;;;;1.73;90.16;98627.97;4106380;28;20409;-64
2023/03/10 03:30:13;;;;;;;;;;;;;;;1.74;89.96;98616.34;4122800;28;20028;-64
2023/03/10 03:32:15;;;;;;;;;;;;;;;1.73;90.24;98597.88;4106535;28;20017;-64
2023/03/10 03:34:19;;;;;;;;;;;;;;;1.73;90.45;98600.53;4123824;28;20020;-64
2023/03/10 03:36:23;;;;;;;;;;;;;;;1.70;90.67;98595.56;4122741;28;20026;-64
2023/03/10 03:38:25;;;;;;;;;;;;;;;1.71;90.68;98600.72;4122268;28;20050;-64
2023/03/10 03:40:28;;;;;;;;;;;;;;;1.70;90.73;98585.72;4123148;28;20009;-64
2023/03/10 03:42:31;;;;;;;;;;;;;;;1.71;90.70;98579.41;4105636;28;20377;-64
2023/03/10 03:44:34;;;;;;;;;;;;;;;1.70;90.53;98568.94;4123819;28;20030;-63
2023/03/10 03:46:37;;;;;;;;;;;;;;;1.70;90.73;98568.94;4113097;28;20042;-64
2023/03/10 03:48:40;;;;;;;;;;;;;;;1.69;90.74;98570.75;4086251;29;19950;-63
2023/03/10 03:50:47;;;;;;;;;;;;;;;1.69;90.85;98559.28;4123691;28;20025;-64
2023/03/10 03:52:57;;;;;;;;;;;;;;;1.69;91.08;98560.09;4122114;28;20441;-62
2023/03/10 03:55:04;;;;;;;;;;;;;;;1.69;91.51;98559.28;4122180;28;20028;-63
2023/03/10 03:57:06;;;;;;;;;;;;;;;1.68;91.46;98553.16;4123357;28;20312;-62
2023/03/10 03:59:08;;;;;;;;;;;;;;;1.68;91.70;98547.81;4120736;28;20040;-63
2023/03/10 04:01:11;;;;;;;;;;;;;;;1.67;92.03;98538.19;4106294;28;20473;-63
2023/03/10 04:03:18;;;;;;;;;;;;;;;1.68;91.80;98528.34;4122383;28;20013;-64
2023/03/10 04:05:21;;;;;;;;;;;;;;;1.69;91.88;98522.03;4119860;28;20025;-63
2023/03/10 04:07:25;;;;;;;;;;;;;;;1.69;92.09;98522.84;4121160;28;20029;-62
2023/03/10 04:09:27;;;;;;;;;;;;;;;1.71;91.91;98523.53;4122321;28;20024;-61
2023/03/10 04:11:29;;;;;;;;;;;;;;;1.70;91.96;98516.53;4121579;28;20012;-63
2023/03/10 04:13:31;;;;;;;;;;;;;;;1.70;92.07;98516.53;4121925;28;20022;-63
2023/03/10 04:15:33;;;;;;;;;;;;;;;1.71;92.04;98512.88;4105085;28;20030;-63
2023/03/10 04:17:35;;;;;;;;;;;;;;;1.72;92.07;98505.72;4118485;28;20018;-63
2023/03/10 04:19:37;;;;;;;;;;;;;;;1.72;92.02;98509.19;4122870;28;20017;-63
2023/03/10 04:21:44;;;;;;;;;;;;;;;1.71;91.71;98504.91;4121086;28;20028;-63
2023/03/10 04:23:49;;;;;;;;;;;;;;;1.72;91.87;98505.72;4105458;28;20033;-63
2023/03/10 04:25:55;;;;;;;;;;;;;;;1.69;91.92;98509.56;4121050;28;20482;-63
2023/03/10 04:27:57;;;;;;;;;;;;;;;1.70;91.57;98508.56;4118524;28;20031;-62
2023/03/10 04:29:59;;;;;;;;;;;;;;;1.72;91.74;98503.06;4123666;28;20029;-63
2023/03/10 04:32:01;;;;;;;;;;;;;;;1.73;91.61;98510.06;4122905;28;20025;-64
2023/03/10 04:34:03;;;;;;;;;;;;;;;1.72;92.01;98508.38;4117134;28;20013;-64
2023/03/10 04:36:07;;;;;;;;;;;;;;;1.70;92.10;98499.75;4119717;28;20415;-64
2023/03/10 04:38:10;;;;;;;;;;;;;;;1.72;91.84;98503.88;4119429;28;19930;-64
2023/03/10 04:40:14;;;;;;;;;;;;;;;1.72;92.13;98501.22;4122197;28;20016;-62
2023/03/10 04:42:16;;;;;;;;;;;;;;;1.73;91.85;98481.59;4122471;28;20069;-64
2023/03/10 04:44:18;;;;;;;;;;;;;;;1.74;92.02;98485.94;4123352;28;20028;-63
2023/03/10 04:46:20;;;;;;;;;;;;;;;1.75;92.04;98500.03;4120140;28;20012;-61
2023/03/10 04:48:23;;;;;;;;;;;;;;;1.73;92.23;98491.41;4121299;28;20484;-63
2023/03/10 04:50:26;;;;;;;;;;;;;;;1.75;92.20;98484.09;4105874;28;20017;-63
2023/03/10 04:52:28;;;;;;;;;;;;;;;1.73;92.27;98473.63;4120844;28;20017;-63
2023/03/10 04:54:30;;;;;;;;;;;;;;;1.75;92.39;98468.94;4121431;28;20097;-63
2023/03/10 04:56:34;;;;;;;;;;;;;;;1.77;92.55;98463.44;4115391;28;20017;-62
2023/03/10 04:58:37;;;;;;;;;;;;;;;1.76;92.68;98461.78;4117501;28;20041;-63
2023/03/10 05:00:39;;;;;;;;;;;;;;;1.77;92.73;98463.44;4105098;28;20109;-63
2023/03/10 05:02:41;;;;;;;;;;;;;;;1.77;92.58;98447.47;4120887;28;20020;-62
2023/03/10 05:04:43;;;;;;;;;;;;;;;1.78;92.53;98449.94;4121686;28;20017;-62
2023/03/10 05:06:49;;;;;;;;;;;;;;;1.80;92.19;98449.78;4117255;28;20491;-63
2023/03/10 05:08:59;;;;;;;;;;;;;;;1.81;92.25;98435.47;4104327;28;20029;-63
2023/03/10 05:11:02;;;;;;;;;;;;;;;1.81;92.06;98430.16;4120727;28;20028;-64
2023/03/10 05:13:11;;;;;;;;;;;;;;;1.82;92.29;98423.81;4120877;28;20017;-62
2023/03/10 05:15:14;;;;;;;;;;;;;;;1.81;92.37;98427.50;4121329;28;20013;-62
2023/03/10 05:17:16;;;;;;;;;;;;;;;1.84;92.72;98426.31;4120492;28;20036;-64
2023/03/10 05:19:19;;;;;;;;;;;;;;;1.83;92.72;98429.97;4120844;28;20028;-64
2023/03/10 05:21:21;;;;;;;;;;;;;;;1.82;92.65;98429.16;4121014;28;20021;-63
2023/03/10 05:23:24;;;;;;;;;;;;;;;1.83;92.81;98424.66;4120029;28;20500;-62
2023/03/10 05:25:26;;;;;;;;;;;;;;;1.83;93.17;98424.66;4105263;28;20464;-64
2023/03/10 05:27:29;;;;;;;;;;;;;;;1.84;93.35;98421.00;4120646;28;19930;-64
2023/03/10 05:29:32;;;;;;;;;;;;;;;1.85;93.02;98423.47;4122021;28;20008;-64
2023/03/10 05:31:44;;;;;;;;;;;;;;;1.85;92.93;98404.00;4122169;28;20021;-66
2023/03/10 05:33:52;;;;;;;;;;;;;;;1.86;92.70;98409.13;4121410;28;19933;-63
2023/03/10 05:35:54;;;;;;;;;;;;;;;1.85;92.72;98410.16;4118446;28;20009;-64
2023/03/10 05:37:57;;;;;;;;;;;;;;;1.85;92.92;98410.16;4121376;28;19973;-61
2023/03/10 05:39:59;;;;;;;;;;;;;;;1.86;93.25;98414.47;4122212;28;19929;-63
2023/03/10 05:42:01;;;;;;;;;;;;;;;1.87;93.13;98404.66;4121017;28;20025;-63
2023/03/10 05:44:06;;;;;;;;;;;;;;;1.88;93.07;98399.16;4104329;28;20356;-61
2023/03/10 05:46:18;;;;;;;;;;;;;;;1.89;93.09;98390.16;4120337;28;20025;-62
2023/03/10 05:48:26;;;;;;;;;;;;;;;1.91;92.91;98389.97;4087374;29;19973;-61
2023/03/10 05:50:28;;;;;;;;;;;;;;;1.92;92.91;98394.28;4121802;28;20411;-61
2023/03/10 05:52:31;;;;;;;;;;;;;;;1.92;92.55;98391.63;4117499;28;20460;-62
2023/03/10 05:54:33;;;;;;;;;;;;;;;1.93;92.57;98394.13;4103782;28;20432;-63
2023/03/10 05:56:35;;;;;;;;;;;;;;;1.93;92.81;98388.78;4103605;28;20028;-63
2023/03/10 05:58:38;;;;;;;;;;;;;;;1.94;92.73;98394.94;4104063;28;20032;-63
2023/03/10 06:00:42;;;;;;;;;;;;;;;1.93;93.13;98388.78;4103705;28;20028;-63
2023/03/10 06:02:45;;;;;;;;;;;;;;;1.93;93.11;98391.47;4120850;28;20025;-64
2023/03/10 06:04:47;;;;;;;;;;;;;;;1.95;93.31;98384.09;4121719;28;20032;-63
2023/03/10 06:06:49;;;;;;;;;;;;;;;1.97;92.91;98375.94;4117927;28;20024;-62
2023/03/10 06:08:51;;;;;;;;;;;;;;;1.97;93.17;98370.63;4121948;28;20013;-63
2023/03/10 06:10:53;;;;;;;;;;;;;;;1.99;92.52;98384.56;4121903;28;20487;-63
2023/03/10 06:12:55;;;;;;;;;;;;;;;2.00;92.45;98377.44;4115687;28;20420;-62
2023/03/10 06:14:57;;;;;;;;;;;;;;;1.99;92.31;98373.91;4121848;28;20021;-63
2023/03/10 06:16:59;;;;;;;;;;;;;;;2.00;92.28;98380.91;4120593;28;20021;-64
2023/03/10 06:19:02;;;;;;;;;;;;;;;2.01;91.98;98371.94;4121442;28;20647;-63
2023/03/10 06:21:05;;;;;;;;;;;;;;;2.03;91.71;98366.41;4121251;28;20017;-64
2023/03/10 06:23:07;;;;;;;;;;;;;;;1.96;92.01;98356.50;4120385;28;20017;-62
2023/03/10 06:25:10;;;;;;;;;;;;;;;2.03;91.75;98375.22;4121487;28;20412;-62
2023/03/10 06:27:12;;;;;;;;;;;;;;;2.04;91.70;98368.06;4120690;28;20040;-63
2023/03/10 06:29:14;;;;;;;;;;;;;;;2.05;91.92;98373.19;4120371;28;20394;-62
2023/03/10 06:31:17;;;;;;;;;;;;;;;2.05;92.05;98369.72;4119979;28;20033;-62
2023/03/10 06:33:19;;;;;;;;;;;;;;;2.05;92.14;98370.53;4119425;28;21753;-63
2023/03/10 06:35:23;;;;;;;;;;;;;;;2.06;91.90;98369.53;4120971;28;20025;-62
2023/03/10 06:37:25;;;;;;;;;;;;;;;2.06;92.21;98371.38;4121098;28;20008;-63
2023/03/10 06:39:28;;;;;;;;;;;;;;;2.06;92.50;98374.88;4121691;28;20032;-63
2023/03/10 06:41:30;;;;;;;;;;;;;;;2.07;92.39;98368.53;4120817;28;20017;-63
2023/03/10 06:43:32;;;;;;;;;;;;;;;2.08;92.23;98369.38;4121390;28;20056;-63
2023/03/10 06:45:34;;;;;;;;;;;;;;;2.09;92.25;98371.03;4122110;28;20025;-63
2023/03/10 06:47:36;;;;;;;;;;;;;;;2.10;92.23;98367.34;4123114;28;20009;-63
2023/03/10 06:49:38;;;;;;;;;;;;;;;2.09;92.20;98369.19;4124150;28;20119;-63
2023/03/10 06:51:41;;;;;;;;;;;;;;;2.10;92.11;98370.00;4123092;28;20012;-61
2023/03/10 06:53:43;;;;;;;;;;;;;;;2.11;92.38;98377.00;4124196;28;20021;-61
2023/03/10 06:55:45;;;;;;;;;;;;;;;2.12;92.17;98370.66;4124091;28;20017;-61
2023/03/10 06:57:47;;;;;;;;;;;;;;;2.12;92.43;98376.00;4123938;28;20058;-63
2023/03/10 06:59:49;;;;;;;;;;;;;;;2.14;92.29;98365.97;4124235;28;20026;-63
2023/03/10 07:01:51;;;;;;;;;;;;;;;2.13;92.31;98362.50;4120913;28;20017;-62
2023/03/10 07:03:53;;;;;;;;;;;;;;;2.14;92.20;98364.13;4123849;28;20009;-60
2023/03/10 07:05:57;;;;;;;;;;;;;;;2.15;92.16;98360.47;4123109;28;20024;-62
2023/03/10 07:08:00;;;;;;;;;;;;;;;2.17;91.89;98365.63;4113013;28;20028;-63
2023/03/10 07:10:02;;;;;;;;;;;;;;;2.16;92.02;98364.81;4114898;28;20448;-62
2023/03/10 07:12:05;;;;;;;;;;;;;;;2.18;92.29;98356.63;4118192;28;20719;-61
2023/03/10 07:14:07;;;;;;;;;;;;;;;2.19;92.10;98357.44;4123733;28;20025;-63
2023/03/10 07:16:09;;;;;;;;;;;;;;;2.18;92.07;98353.97;4123562;28;20017;-62
2023/03/10 07:18:31;;;;;;;;;;;;;;;2.20;92.31;98361.78;4209561;27;19916;-62
2023/03/10 07:20:33;;;;;;;;;;;;;;;2.20;91.58;98351.94;4207529;28;20003;-61
2023/03/10 07:22:35;;;;;;;;;;;;;;;2.21;91.36;98358.94;4198151;28;20054;-62
2023/03/10 07:24:37;;;;;;;;;;;;;;;2.22;90.92;98362.41;4190633;28;20023;-64
2023/03/10 07:26:39;;;;;;;;;;;;;;;2.22;90.67;98355.25;4188979;28;20011;-62
2023/03/10 07:28:41;;;;;;;;;;;;;;;2.25;90.79;98362.06;4190664;28;20024;-64
2023/03/10 07:30:43;;;;;;;;;;;;;;;2.23;90.15;98356.91;4190253;28;20016;-63
2023/03/10 07:32:45;;;;;;;;;;;;;;;2.25;89.86;98362.88;4188312;28;20036;-64
2023/03/10 07:34:48;;;;;;;;;;;;;;;2.27;89.74;98354.69;4191217;28;20469;-62
2023/03/10 07:36:50;;;;;;;;;;;;;;;2.26;89.04;98358.38;4190180;28;20039;-65
2023/03/10 07:38:52;;;;;;;;;;;;;;;2.29;88.77;98360.69;4190411;28;20027;-64
2023/03/10 07:40:54;;;;;;;;;;;;;;;2.29;88.71;98360.69;4189956;28;20015;-63
2023/03/10 07:42:56;;;;;;;;;;;;;;;2.30;88.20;98355.19;4189887;28;20055;-62
2023/03/10 07:45:00;;;;;;;;;;;;;;;2.31;88.64;98358.66;4189767;28;20023;-63
2023/03/10 07:47:02;;;;;;;;;;;;;;;2.32;88.73;98350.50;4189571;28;20015;-64
2023/03/10 07:49:05;;;;;;;;;;;;;;;2.34;88.97;98360.97;4184213;28;20047;-64
2023/03/10 07:51:08;;;;;;;;;;;;;;;2.34;88.84;98358.28;4187257;28;20016;-62
2023/03/10 07:53:10;;;;;;;;;;;;;;;2.36;88.94;98353.59;4187738;28;20043;-63
2023/03/10 07:55:12;;;;;;;;;;;;;;;2.37;89.36;98349.94;4190514;28;20036;-62
2023/03/10 07:57:15;;;;;;;;;;;;;;;2.38;89.67;98348.09;4189489;28;20019;-63
2023/03/10 07:59:17;;;;;;;;;;;;;;;2.39;89.13;98345.25;4190434;28;20027;-64
2023/03/10 08:01:19;;;;;;;;;;;;;;;2.40;88.93;98348.72;4190588;28;20015;-64
2023/03/10 08:03:22;;;;;;;;;;;;;;;2.40;88.07;98354.06;4190475;28;20379;-64
2023/03/10 08:05:24;;;;;;;;;;;;;;;2.41;87.59;98353.88;4207641;28;20664;-63
2023/03/10 08:07:27;;;;;;;;;;;;;;;2.43;87.27;98333.22;4184593;28;20012;-62
2023/03/10 08:09:29;;;;;;;;;;;;;;;2.43;86.28;98335.03;4189038;28;20032;-64
2023/03/10 08:11:31;;;;;;;;;;;;;;;2.46;85.99;98343.50;4189949;28;20027;-62
2023/03/10 08:13:33;;;;;;;;;;;;;;;2.48;85.44;98346.81;4189995;28;20020;-62
2023/03/10 08:15:35;;;;;;;;;;;;;;;2.51;85.06;98341.13;4207027;28;20007;-63
2023/03/10 08:17:37;;;;;;;;;;;;;;;2.54;84.69;98339.94;4189212;28;20027;-63
2023/03/10 08:19:39;;;;;;;;;;;;;;;2.56;84.48;98337.91;4191636;28;20019;-64
2023/03/10 08:21:42;;;;;;;;;;;;;;;2.58;83.89;98330.53;4189224;28;20434;-62
2023/03/10 08:23:46;;;;;;;;;;;;;;;2.58;83.31;98327.88;4190418;28;20450;-63
2023/03/10 08:25:48;;;;;;;;;;;;;;;2.63;83.64;98340.66;4190369;28;20023;-63
2023/03/10 08:27:50;;;;;;;;;;;;;;;2.66;83.73;98345.59;4188650;28;20024;-62
2023/03/10 08:29:51;;;;;;;;;;;;;;;2.68;83.58;98344.41;4178353;28;20007;-61
2023/03/10 08:31:54;;;;;;;;;;;;;;;2.68;82.78;98338.25;4170504;28;20016;-63
2023/03/10 08:33:56;;;;;;;;;;;;;;;2.69;82.98;98340.72;4178447;28;20024;-62
2023/03/10 08:36:02;;;;;;;;;;;;;;;2.71;82.56;98343.22;4177811;28;20023;-64
2023/03/10 08:38:04;;;;;;;;;;;;;;;2.72;82.90;98342.19;4178799;28;20019;-63
2023/03/10 08:40:10;;;;;;;;;;;;;;;2.75;82.88;98341.00;4179703;28;20075;-63
2023/03/10 08:42:12;;;;;;;;;;;;;;;2.77;82.58;98347.78;4180108;28;20024;-64
2023/03/10 08:44:16;;;;;;;;;;;;;;;2.78;82.07;98344.13;4177866;28;20570;-63
2023/03/10 08:46:19;;;;;;;;;;;;;;;2.82;82.10;98341.91;4176469;28;20645;-63
2023/03/10 08:48:21;;;;;;;;;;;;;;;2.83;82.27;98341.72;4174991;28;20012;-63
2023/03/10 08:50:23;;;;;;;;;;;;;;;2.86;82.16;98346.69;4175618;28;20023;-63
2023/03/10 08:52:25;;;;;;;;;;;;;;;2.87;82.02;98342.19;4174429;28;20418;-63
2023/03/10 08:54:27;;;;;;;;;;;;;;;2.88;81.84;98343.84;4179293;28;20043;-64
2023/03/10 08:56:31;;;;;;;;;;;;;;;2.89;81.97;98351.66;4179567;28;20028;-64
2023/03/10 08:58:33;;;;;;;;;;;;;;;2.94;81.84;98342.28;4179536;28;20050;-64
2023/03/10 09:00:35;;;;;;;;;;;;;;;2.95;82.08;98342.09;4180034;28;20024;-64
2023/03/10 09:02:37;;;;;;;;;;;;;;;3.00;82.06;98334.34;4180024;28;20015;-64
2023/03/10 09:04:39;;;;;;;;;;;;;;;3.07;81.78;98337.06;4179030;28;20575;-64
2023/03/10 09:06:41;;;;;;;;;;;;;;;3.14;81.88;98339.84;4178274;28;20047;-64
2023/03/10 09:08:43;;;;;;;;;;;;;;;3.22;81.91;98340.53;4181108;28;20436;-63
2023/03/10 09:10:45;;;;;;;;;;;;;;;3.33;81.82;98343.75;4180257;28;20019;-65
2023/03/10 09:12:49;;;;;;;;;;;;;;;3.40;82.08;98341.94;4179868;28;20019;-65
2023/03/10 09:14:51;;;;;;;;;;;;;;;3.47;82.28;98342.03;4167499;28;20031;-64
2023/03/10 09:16:53;;;;;;;;;;;;;;;3.58;82.23;98342.34;4193681;28;20020;-64
2023/03/10 09:18:55;;;;;;;;;;;;;;;3.72;82.58;98348.63;4180456;28;20031;-64
2023/03/10 09:20:57;;;;;;;;;;;;;;;3.84;82.54;98358.78;4179096;28;20032;-64
2023/03/10 09:22:58;;;;;;;;;;;;;;;3.90;81.91;98361.53;4176774;28;20008;-64
2023/03/10 09:25:00;;;;;;;;;;;;;;;4.00;82.23;98366.53;4176729;28;20043;-64
2023/03/10 09:27:03;;;;;;;;;;;;;;;4.09;82.07;98367.22;4173517;28;20369;-65
2023/03/10 09:29:06;;;;;;;;;;;;;;;4.12;82.06;98370.34;4174506;28;20441;-65
2023/03/10 09:31:09;;;;;;;;;;;;;;;4.21;82.14;98365.66;4172615;28;20584;-65
2023/03/10 09:33:13;;;;;;;;;;;;;;;4.27;82.00;98364.88;4175799;28;20024;-65
2023/03/10 09:35:15;;;;;;;;;;;;;;;4.34;81.47;98375.63;4175871;28;20012;-63
2023/03/10 09:37:17;;;;;;;;;;;;;;;4.41;81.93;98371.16;4173702;28;20363;-64
2023/03/10 09:39:19;;;;;;;;;;;;;;;4.46;81.62;98375.91;4176966;28;20032;-64
2023/03/10 09:41:40;;;;;;;;;;;;;;;4.48;81.31;98372.03;4175038;28;20029;-64
2023/03/10 09:43:44;;;;;;;;;;;;;;;4.49;81.18;98373.66;4179790;28;20027;-63
2023/03/10 09:45:49;;;;;;;;;;;;;;;4.48;81.42;98372.03;4179983;28;20031;-64
2023/03/10 09:48:01;;;;;;;;;;;;;;;4.49;81.50;98373.66;4178645;28;20007;-65
2023/03/10 09:50:10;;;;;;;;;;;;;;;4.54;81.97;98375.75;4179697;28;20377;-65
2023/03/10 09:52:17;;;;;;;;;;;;;;;4.60;82.29;98374.97;4179428;28;20438;-64
2023/03/10 09:54:25;;;;;;;;;;;;;;;4.73;82.26;98374.22;4177814;28;20016;-64
2023/03/10 09:56:30;;;;;;;;;;;;;;;4.79;82.45;98365.41;4174595;28;20473;-65
2023/03/10 09:58:32;;;;;;;;;;;;;;;4.83;82.51;98376.56;4179479;28;20012;-65
2023/03/10 10:00:35;;;;;;;;;;;;;;;4.94;82.69;98378.66;4175887;28;20015;-64
2023/03/10 10:02:40;;;;;;;;;;;;;;;4.98;81.86;98392.47;4174944;28;20015;-65
2023/03/10 10:04:42;;;;;;;;;;;;;;;5.04;82.83;98379.09;4178255;28;20055;-64
2023/03/10 10:06:46;;;;;;;;;;;;;;;5.12;83.02;98393.34;4176133;28;19971;-64
2023/03/10 10:08:49;;;;;;;;;;;;;;;5.30;83.80;98393.63;4179501;28;20462;-65
2023/03/10 10:10:52;;;;;;;;;;;;;;;5.35;84.13;98375.09;4179183;28;20019;-64
2023/03/10 10:12:54;;;;;;;;;;;;;;;5.38;83.98;98371.22;4177468;28;20027;-64
2023/03/10 10:14:56;;;;;;;;;;;;;;;5.41;83.31;98379.66;4175620;28;20023;-63
2023/03/10 10:17:00;;;;;;;;;;;;;;;5.52;84.17;98364.03;4177896;28;19964;-64
2023/03/10 10:19:04;;;;;;;;;;;;;;;5.58;84.44;98373.94;4176870;28;20020;-64
2023/03/10 10:21:06;;;;;;;;;;;;;;;5.70;84.67;98372.28;4177606;28;20073;-64
2023/03/10 10:23:13;;;;;;;;;;;;;;;5.73;84.26;98385.28;4175854;28;20015;-64
2023/03/10 10:25:17;;;;;;;;;;;;;;;5.81;84.71;98386.13;4177859;28;20027;-64
2023/03/10 10:27:19;;;;;;;;;;;;;;;5.83;84.75;98384.06;4177487;28;20027;-64
2023/03/10 10:29:22;;;;;;;;;;;;;;;5.80;84.50;98377.28;4169066;28;19948;-64
2023/03/10 10:31:25;;;;;;;;;;;;;;;5.80;84.80;98379.97;4176568;28;20034;-64
2023/03/10 10:33:27;;;;;;;;;;;;;;;5.98;85.32;98379.38;4177535;28;20015;-64
2023/03/10 10:35:31;;;;;;;;;;;;;;;6.09;84.95;98377.94;4179254;28;20019;-63
2023/03/10 10:37:34;;;;;;;;;;;;;;;6.08;84.08;98369.09;4178772;28;20015;-64
2023/03/10 10:39:40;;;;;;;;;;;;;;;6.04;84.49;98394.63;4179204;28;20473;-64
2023/03/10 10:41:42;;;;;;;;;;;;;;;6.19;85.07;98394.44;4178540;28;20051;-64
2023/03/10 10:43:44;;;;;;;;;;;;;;;6.18;85.13;98395.47;4179219;28;20017;-63
2023/03/10 10:45:52;;;;;;;;;;;;;;;6.19;85.67;98397.13;4178690;28;20012;-63
2023/03/10 10:47:55;;;;;;;;;;;;;;;6.22;86.22;98399.41;4178503;28;20055;-65
2023/03/10 10:50:08;;;;;;;;;;;;;;;6.29;85.81;98399.38;4179322;28;20020;-65